SVMI/CCS METAR and TAF weather

Enter ICAO airport designator
Station Type Date Time Source
SVMI METAR 2020/01/29 12:02 UTC NOAA

SVMI 291202Z AUTO 26002KT NCD 22/// Q1015


Station Type Date Time Source
SVMI Decoded METAR 2020/01/29 12:02 UTC NOAA

Caracas / Maiquetia Aerop. Intl. Simon Bolivar, Venezuela (SVMI) 10-36N 066-59W 48M
Jan 29, 2020 - 07:02 AM EST / 2020.01.29 1202 UTC
Wind: from the W (260 degrees) at 2 MPH (2 KT):0
Temperature: 71 F (22 C)
Pressure (altimeter): 29.97 in. Hg (1015 hPa)
ob: SVMI 291202Z AUTO 26002KT NCD 22/// Q1015
cycle: 12

Station Type Date Time Source
SVMI TAF 2020/01/29 12:03 UTC NOAA

TAF SVMI 291000Z 2912/3012 00000KT 9999 FEW016 TX25/18Z TN22/09Z
BECMG 2912/2916 09003KT FEW016

Example: see airport list